Terminal Aerodrome Forecast
Issued by NWS

Home | Current Version | Previous Version | Graphics & Text | Print | Product List | Glossary On
Versions: 1 2 3 4 5 6 7 8 9 10 11 12
000
FTUS43 KMPX 301720
TAFAXN
TAF
KAXN 301720Z 3018/0118 06006KT P6SM FEW040 BKN200
     FM302300 10006KT P6SM BKN150
     FM010600 12005KT P6SM BKN100
     FM011000 14006KT P6SM VCSH FEW040 BKN080=

USA.gov is the U.S. government's official web portal to all federal, state and local government web resources and services.